sensor_id;sensor_type;location;lat;lon;timestamp;pressure;altitude;pressure_sealevel;temperature;humidity
62895;BME280;49204;44.916;37.998;2022-07-29T00:02:07;101230.09;;;18.73;80.79
62895;BME280;49204;44.916;37.998;2022-07-29T00:04:36;101224.09;;;18.69;80.85
62895;BME280;49204;44.916;37.998;2022-07-29T00:07:05;101226.86;;;18.67;81.00
62895;BME280;49204;44.916;37.998;2022-07-29T00:09:34;101225.26;;;18.65;81.03
62895;BME280;49204;44.916;37.998;2022-07-29T00:12:03;101229.84;;;18.63;80.89
62895;BME280;49204;44.916;37.998;2022-07-29T00:14:32;101228.61;;;18.61;81.06
62895;BME280;49204;44.916;37.998;2022-07-29T00:17:00;101224.30;;;18.59;81.04
62895;BME280;49204;44.916;37.998;2022-07-29T00:19:29;101224.80;;;18.58;81.12
62895;BME280;49204;44.916;37.998;2022-07-29T00:21:57;101222.22;;;18.57;81.08
62895;BME280;49204;44.916;37.998;2022-07-29T00:24:26;101218.80;;;18.55;81.01
62895;BME280;49204;44.916;37.998;2022-07-29T00:26:55;101221.78;;;18.50;81.44
62895;BME280;49204;44.916;37.998;2022-07-29T00:29:24;101217.39;;;18.49;81.22
62895;BME280;49204;44.916;37.998;2022-07-29T00:31:52;101218.81;;;18.47;81.22
62895;BME280;49204;44.916;37.998;2022-07-29T00:34:21;101220.37;;;18.44;81.32
62895;BME280;49204;44.916;37.998;2022-07-29T00:37:07;101216.56;;;18.41;81.52
62895;BME280;49204;44.916;37.998;2022-07-29T00:39:36;101222.27;;;18.35;81.53
62895;BME280;49204;44.916;37.998;2022-07-29T00:42:05;101222.48;;;18.32;81.75
62895;BME280;49204;44.916;37.998;2022-07-29T00:44:40;101221.33;;;18.29;81.87
62895;BME280;49204;44.916;37.998;2022-07-29T00:47:10;101218.67;;;18.29;81.67
62895;BME280;49204;44.916;37.998;2022-07-29T00:49:41;101224.19;;;18.26;81.97
62895;BME280;49204;44.916;37.998;2022-07-29T00:52:10;101221.34;;;18.22;82.08
62895;BME280;49204;44.916;37.998;2022-07-29T00:54:40;101222.89;;;18.19;82.11
62895;BME280;49204;44.916;37.998;2022-07-29T00:57:08;101220.89;;;18.15;82.29
62895;BME280;49204;44.916;37.998;2022-07-29T00:59:37;101227.07;;;18.16;82.36
62895;BME280;49204;44.916;37.998;2022-07-29T01:02:06;101217.92;;;18.12;82.81
62895;BME280;49204;44.916;37.998;2022-07-29T01:04:34;101220.98;;;18.13;82.61
62895;BME280;49204;44.916;37.998;2022-07-29T01:07:03;101221.92;;;18.12;82.67
62895;BME280;49204;44.916;37.998;2022-07-29T01:09:33;101223.25;;;18.12;82.71
62895;BME280;49204;44.916;37.998;2022-07-29T01:12:03;101222.89;;;18.11;82.66
62895;BME280;49204;44.916;37.998;2022-07-29T01:14:32;101222.14;;;18.09;82.91
62895;BME280;49204;44.916;37.998;2022-07-29T01:17:14;101223.66;;;18.06;83.16
62895;BME280;49204;44.916;37.998;2022-07-29T01:19:48;101224.02;;;18.07;82.83
62895;BME280;49204;44.916;37.998;2022-07-29T01:22:52;101216.99;;;18.06;82.58
62895;BME280;49204;44.916;37.998;2022-07-29T01:25:32;101220.23;;;18.04;82.47
62895;BME280;49204;44.916;37.998;2022-07-29T01:30:36;101213.18;;;17.96;83.04
62895;BME280;49204;44.916;37.998;2022-07-29T01:33:11;101213.48;;;17.91;83.29
62895;BME280;49204;44.916;37.998;2022-07-29T01:35:42;101210.06;;;17.89;83.65
62895;BME280;49204;44.916;37.998;2022-07-29T01:38:15;101209.84;;;17.85;83.92
62895;BME280;49204;44.916;37.998;2022-07-29T01:41:07;101214.02;;;17.82;83.91
62895;BME280;49204;44.916;37.998;2022-07-29T01:43:36;101211.05;;;17.80;84.22
62895;BME280;49204;44.916;37.998;2022-07-29T01:46:05;101207.63;;;17.78;84.22
62895;BME280;49204;44.916;37.998;2022-07-29T01:48:49;101210.69;;;17.79;84.10
62895;BME280;49204;44.916;37.998;2022-07-29T01:51:21;101209.45;;;17.77;84.13
62895;BME280;49204;44.916;37.998;2022-07-29T01:54:06;101208.78;;;17.73;84.16
62895;BME280;49204;44.916;37.998;2022-07-29T01:56:35;101211.26;;;17.69;84.04
62895;BME280;49204;44.916;37.998;2022-07-29T01:59:07;101210.41;;;17.69;84.31
62895;BME280;49204;44.916;37.998;2022-07-29T02:01:39;101218.28;;;17.70;84.53
62895;BME280;49204;44.916;37.998;2022-07-29T02:04:09;101208.69;;;17.68;84.29
62895;BME280;49204;44.916;37.998;2022-07-29T02:06:39;101207.92;;;17.66;84.29
62895;BME280;49204;44.916;37.998;2022-07-29T02:09:11;101204.11;;;17.63;84.67
62895;BME280;49204;44.916;37.998;2022-07-29T02:11:41;101210.01;;;17.61;84.72
62895;BME280;49204;44.916;37.998;2022-07-29T02:14:12;101213.91;;;17.62;84.73
62895;BME280;49204;44.916;37.998;2022-07-29T02:16:42;101208.20;;;17.68;84.65
62895;BME280;49204;44.916;37.998;2022-07-29T02:19:13;101213.92;;;17.69;84.72
62895;BME280;49204;44.916;37.998;2022-07-29T02:21:44;101206.87;;;17.68;84.82
62895;BME280;49204;44.916;37.998;2022-07-29T02:24:14;101203.27;;;17.69;84.90
62895;BME280;49204;44.916;37.998;2022-07-29T02:26:45;101209.92;;;17.69;85.00
62895;BME280;49204;44.916;37.998;2022-07-29T02:29:15;101206.39;;;17.76;85.09
62895;BME280;49204;44.916;37.998;2022-07-29T02:31:46;101204.22;;;17.83;85.09
62895;BME280;49204;44.916;37.998;2022-07-29T02:34:17;101210.34;;;17.92;85.13
62895;BME280;49204;44.916;37.998;2022-07-29T02:36:47;101211.09;;;18.01;84.95
62895;BME280;49204;44.916;37.998;2022-07-29T02:39:17;101212.23;;;18.11;84.71
62895;BME280;49204;44.916;37.998;2022-07-29T02:41:52;101215.65;;;18.21;84.40
62895;BME280;49204;44.916;37.998;2022-07-29T02:44:24;101215.52;;;18.29;84.19
62895;BME280;49204;44.916;37.998;2022-07-29T02:52:31;101208.39;;;18.37;83.56
62895;BME280;49204;44.916;37.998;2022-07-29T02:57:51;101212.28;;;18.66;83.35
62895;BME280;49204;44.916;37.998;2022-07-29T03:00:16;101213.02;;;18.82;83.19
62895;BME280;49204;44.916;37.998;2022-07-29T03:02:46;101213.88;;;19.03;82.72
62895;BME280;49204;44.916;37.998;2022-07-29T03:05:20;101216.44;;;19.24;81.79
62895;BME280;49204;44.916;37.998;2022-07-29T03:07:58;101215.61;;;19.37;80.97
62895;BME280;49204;44.916;37.998;2022-07-29T03:10:27;101219.50;;;19.51;80.29
62895;BME280;49204;44.916;37.998;2022-07-29T03:12:57;101224.28;;;19.53;79.62
62895;BME280;49204;44.916;37.998;2022-07-29T03:15:26;101224.05;;;19.56;79.20
62895;BME280;49204;44.916;37.998;2022-07-29T03:17:56;101216.67;;;19.60;79.25
62895;BME280;49204;44.916;37.998;2022-07-29T03:20:25;101219.05;;;19.64;79.33
62895;BME280;49204;44.916;37.998;2022-07-29T03:22:54;101211.54;;;19.70;79.10
62895;BME280;49204;44.916;37.998;2022-07-29T03:25:23;101218.81;;;19.67;78.85
62895;BME280;49204;44.916;37.998;2022-07-29T03:27:52;101218.61;;;19.71;78.89
62895;BME280;49204;44.916;37.998;2022-07-29T03:30:21;101215.77;;;19.74;78.91
62895;BME280;49204;44.916;37.998;2022-07-29T03:32:50;101216.66;;;19.80;78.86
62895;BME280;49204;44.916;37.998;2022-07-29T03:35:21;101220.22;;;19.86;78.75
62895;BME280;49204;44.916;37.998;2022-07-29T03:37:49;101212.25;;;19.92;78.54
62895;BME280;49204;44.916;37.998;2022-07-29T03:40:24;101219.25;;;20.00;78.31
62895;BME280;49204;44.916;37.998;2022-07-29T03:42:54;101214.70;;;20.08;78.21
62895;BME280;49204;44.916;37.998;2022-07-29T03:45:24;101218.08;;;20.22;78.23
62895;BME280;49204;44.916;37.998;2022-07-29T03:47:57;101218.44;;;20.36;78.03
62895;BME280;49204;44.916;37.998;2022-07-29T03:50:25;101215.58;;;20.51;77.84
62895;BME280;49204;44.916;37.998;2022-07-29T03:52:54;101218.87;;;20.67;77.70
62895;BME280;49204;44.916;37.998;2022-07-29T03:55:23;101212.87;;;20.88;77.59
62895;BME280;49204;44.916;37.998;2022-07-29T03:57:52;101216.49;;;21.05;77.25
62895;BME280;49204;44.916;37.998;2022-07-29T04:00:21;101213.75;;;21.24;76.80
62895;BME280;49204;44.916;37.998;2022-07-29T04:02:51;101213.67;;;21.42;76.34
62895;BME280;49204;44.916;37.998;2022-07-29T04:05:19;101214.83;;;21.56;75.54
62895;BME280;49204;44.916;37.998;2022-07-29T04:07:48;101219.09;;;21.70;74.55
62895;BME280;49204;44.916;37.998;2022-07-29T04:10:17;101220.09;;;21.86;74.08
62895;BME280;49204;44.916;37.998;2022-07-29T04:12:46;101218.52;;;22.01;73.22
62895;BME280;49204;44.916;37.998;2022-07-29T04:15:15;101228.61;;;22.20;72.88
62895;BME280;49204;44.916;37.998;2022-07-29T04:17:44;101225.80;;;22.44;72.40
62895;BME280;49204;44.916;37.998;2022-07-29T04:20:12;101226.25;;;22.60;71.34
62895;BME280;49204;44.916;37.998;2022-07-29T04:22:41;101232.38;;;22.83;71.13
62895;BME280;49204;44.916;37.998;2022-07-29T04:25:10;101232.91;;;23.15;70.88
62895;BME280;49204;44.916;37.998;2022-07-29T04:27:38;101230.18;;;23.42;70.36
62895;BME280;49204;44.916;37.998;2022-07-29T04:30:09;101231.07;;;23.73;69.96
62895;BME280;49204;44.916;37.998;2022-07-29T04:32:37;101220.73;;;23.99;69.19
62895;BME280;49204;44.916;37.998;2022-07-29T04:35:07;101221.84;;;24.27;68.60
62895;BME280;49204;44.916;37.998;2022-07-29T04:37:35;101225.11;;;24.56;68.33
62895;BME280;49204;44.916;37.998;2022-07-29T04:40:05;101223.02;;;24.89;68.00
62895;BME280;49204;44.916;37.998;2022-07-29T04:42:34;101218.83;;;25.20;67.51
62895;BME280;49204;44.916;37.998;2022-07-29T04:45:03;101221.34;;;25.51;67.06
62895;BME280;49204;44.916;37.998;2022-07-29T04:47:32;101215.42;;;25.85;66.75
62895;BME280;49204;44.916;37.998;2022-07-29T04:50:00;101220.95;;;26.20;66.36
62895;BME280;49204;44.916;37.998;2022-07-29T04:52:29;101214.94;;;26.54;65.66
62895;BME280;49204;44.916;37.998;2022-07-29T04:54:58;101220.97;;;26.80;64.77
62895;BME280;49204;44.916;37.998;2022-07-29T04:57:26;101216.13;;;27.06;64.30
62895;BME280;49204;44.916;37.998;2022-07-29T04:59:55;101217.41;;;27.38;63.84
62895;BME280;49204;44.916;37.998;2022-07-29T05:02:23;101215.55;;;27.68;63.27
62895;BME280;49204;44.916;37.998;2022-07-29T05:04:52;101217.25;;;27.96;62.63
62895;BME280;49204;44.916;37.998;2022-07-29T05:07:21;101220.61;;;28.32;62.25
62895;BME280;49204;44.916;37.998;2022-07-29T05:09:49;101215.47;;;28.55;61.33
62895;BME280;49204;44.916;37.998;2022-07-29T05:12:18;101220.08;;;28.79;60.78
62895;BME280;49204;44.916;37.998;2022-07-29T05:14:47;101218.72;;;29.04;60.42
62895;BME280;49204;44.916;37.998;2022-07-29T05:17:15;101219.75;;;29.32;60.08
62895;BME280;49204;44.916;37.998;2022-07-29T05:19:44;101224.09;;;29.61;59.42
62895;BME280;49204;44.916;37.998;2022-07-29T05:22:13;101218.83;;;29.76;58.70
62895;BME280;49204;44.916;37.998;2022-07-29T05:24:41;101223.98;;;30.02;58.38
62895;BME280;49204;44.916;37.998;2022-07-29T05:27:10;101223.20;;;30.29;58.11
62895;BME280;49204;44.916;37.998;2022-07-29T05:29:38;101221.33;;;30.61;57.63
62895;BME280;49204;44.916;37.998;2022-07-29T05:32:07;101228.28;;;30.91;56.82
62895;BME280;49204;44.916;37.998;2022-07-29T05:34:36;101224.72;;;31.13;55.86
62895;BME280;49204;44.916;37.998;2022-07-29T05:37:04;101221.23;;;31.39;55.37
62895;BME280;49204;44.916;37.998;2022-07-29T05:39:33;101224.81;;;31.58;54.74
62895;BME280;49204;44.916;37.998;2022-07-29T05:42:02;101224.17;;;31.71;54.08
62895;BME280;49204;44.916;37.998;2022-07-29T05:44:31;101223.21;;;31.93;53.30
62895;BME280;49204;44.916;37.998;2022-07-29T05:47:01;101223.56;;;32.20;52.70
62895;BME280;49204;44.916;37.998;2022-07-29T05:49:29;101223.31;;;32.26;51.83
62895;BME280;49204;44.916;37.998;2022-07-29T05:51:58;101208.06;;;32.46;51.01
62895;BME280;49204;44.916;37.998;2022-07-29T05:54:27;101208.06;;;32.46;51.01
62895;BME280;49204;44.916;37.998;2022-07-29T05:56:55;101209.61;;;32.81;50.51
62895;BME280;49204;44.916;37.998;2022-07-29T05:59:24;101206.73;;;32.89;49.77
62895;BME280;49204;44.916;37.998;2022-07-29T06:01:52;101203.17;;;32.89;49.11
62895;BME280;49204;44.916;37.998;2022-07-29T06:04:21;101187.83;;;32.88;48.31
62895;BME280;49204;44.916;37.998;2022-07-29T06:06:50;101187.83;;;32.88;48.31
62895;BME280;49204;44.916;37.998;2022-07-29T06:09:18;101195.17;;;32.98;47.89
62895;BME280;49204;44.916;37.998;2022-07-29T06:11:47;101193.80;;;33.09;47.54
62895;BME280;49204;44.916;37.998;2022-07-29T06:14:16;101199.04;;;33.21;47.59
62895;BME280;49204;44.916;37.998;2022-07-29T06:16:45;101193.67;;;33.35;46.98
62895;BME280;49204;44.916;37.998;2022-07-29T06:19:13;101191.31;;;33.60;46.97
62895;BME280;49204;44.916;37.998;2022-07-29T06:21:43;101190.67;;;33.69;46.11
62895;BME280;49204;44.916;37.998;2022-07-29T06:24:12;101196.77;;;33.71;45.66
62895;BME280;49204;44.916;37.998;2022-07-29T06:26:42;101191.91;;;33.83;45.57
62895;BME280;49204;44.916;37.998;2022-07-29T06:29:11;101191.50;;;33.87;45.46
62895;BME280;49204;44.916;37.998;2022-07-29T06:31:39;101186.23;;;34.09;45.32
62895;BME280;49204;44.916;37.998;2022-07-29T06:34:08;101193.66;;;34.29;45.32
62895;BME280;49204;44.916;37.998;2022-07-29T06:36:37;101185.36;;;34.26;44.61
62895;BME280;49204;44.916;37.998;2022-07-29T06:39:07;101184.43;;;34.30;44.38
62895;BME280;49204;44.916;37.998;2022-07-29T06:41:36;101187.50;;;34.31;43.67
62895;BME280;49204;44.916;37.998;2022-07-29T06:44:06;101186.06;;;34.17;43.08
62895;BME280;49204;44.916;37.998;2022-07-29T06:46:35;101181.16;;;34.30;43.54
62895;BME280;49204;44.916;37.998;2022-07-29T06:49:03;101178.08;;;34.67;43.55
62895;BME280;49204;44.916;37.998;2022-07-29T06:51:32;101178.54;;;35.04;43.32
62895;BME280;49204;44.916;37.998;2022-07-29T06:54:01;101178.56;;;35.30;42.65
62895;BME280;49204;44.916;37.998;2022-07-29T06:56:32;101177.45;;;35.45;42.48
62895;BME280;49204;44.916;37.998;2022-07-29T06:59:03;101176.36;;;35.59;41.79
62895;BME280;49204;44.916;37.998;2022-07-29T07:01:32;101176.66;;;35.80;41.68
62895;BME280;49204;44.916;37.998;2022-07-29T07:04:01;101184.48;;;35.92;41.27
62895;BME280;49204;44.916;37.998;2022-07-29T07:06:29;101183.59;;;36.05;41.14
62895;BME280;49204;44.916;37.998;2022-07-29T07:08:58;101179.33;;;35.93;40.56
62895;BME280;49204;44.916;37.998;2022-07-29T07:11:27;101185.04;;;35.85;40.31
62895;BME280;49204;44.916;37.998;2022-07-29T07:13:55;101182.09;;;35.87;39.88
62895;BME280;49204;44.916;37.998;2022-07-29T07:16:24;101179.14;;;35.88;39.94
62895;BME280;49204;44.916;37.998;2022-07-29T07:18:53;101181.84;;;36.18;39.75
62895;BME280;49204;44.916;37.998;2022-07-29T07:21:21;101171.49;;;36.42;39.67
62895;BME280;49204;44.916;37.998;2022-07-29T07:23:50;101168.53;;;36.44;39.01
62895;BME280;49204;44.916;37.998;2022-07-29T07:26:18;101164.28;;;36.48;39.01
62895;BME280;49204;44.916;37.998;2022-07-29T07:28:47;101168.58;;;36.53;38.57
62895;BME280;49204;44.916;37.998;2022-07-29T07:31:16;101171.84;;;36.37;38.20
62895;BME280;49204;44.916;37.998;2022-07-29T07:33:45;101176.25;;;36.15;37.90
62895;BME280;49204;44.916;37.998;2022-07-29T07:36:13;101165.69;;;36.03;38.22
62895;BME280;49204;44.916;37.998;2022-07-29T07:38:42;101167.22;;;35.92;38.51
62895;BME280;49204;44.916;37.998;2022-07-29T07:41:11;101165.98;;;36.04;38.65
62895;BME280;49204;44.916;37.998;2022-07-29T07:43:40;101175.83;;;36.25;38.19
62895;BME280;49204;44.916;37.998;2022-07-29T07:46:08;101170.62;;;36.32;38.36
62895;BME280;49204;44.916;37.998;2022-07-29T07:48:37;101167.66;;;36.34;38.09
62895;BME280;49204;44.916;37.998;2022-07-29T07:51:06;101162.55;;;36.53;37.87
62895;BME280;49204;44.916;37.998;2022-07-29T07:53:35;101161.64;;;36.50;37.09
62895;BME280;49204;44.916;37.998;2022-07-29T07:56:03;101162.36;;;36.71;37.27
62895;BME280;49204;44.916;37.998;2022-07-29T07:58:33;101161.48;;;36.86;36.88
62895;BME280;49204;44.916;37.998;2022-07-29T08:01:03;101161.92;;;36.83;36.97
62895;BME280;49204;44.916;37.998;2022-07-29T08:03:32;101161.78;;;36.78;36.99
62895;BME280;49204;44.916;37.998;2022-07-29T08:06:01;101155.84;;;36.90;36.92
62895;BME280;49204;44.916;37.998;2022-07-29T08:08:30;101155.82;;;36.81;36.76
62895;BME280;49204;44.916;37.998;2022-07-29T08:10:59;101158.73;;;36.86;36.94
62895;BME280;49204;44.916;37.998;2022-07-29T08:13:29;101155.42;;;37.19;36.91
62895;BME280;49204;44.916;37.998;2022-07-29T08:15:59;101156.64;;;37.32;35.78
62895;BME280;49204;44.916;37.998;2022-07-29T08:18:30;101153.84;;;37.14;35.42
62895;BME280;49204;44.916;37.998;2022-07-29T08:20:59;101146.05;;;37.45;35.91
62895;BME280;49204;44.916;37.998;2022-07-29T08:23:27;101147.48;;;37.84;35.80
62895;BME280;49204;44.916;37.998;2022-07-29T08:25:58;101150.47;;;37.74;34.26
62895;BME280;49204;44.916;37.998;2022-07-29T08:28:26;101148.57;;;37.46;34.30
62895;BME280;49204;44.916;37.998;2022-07-29T08:30:55;101140.99;;;37.23;33.99
62895;BME280;49204;44.916;37.998;2022-07-29T08:33:23;101141.76;;;37.21;34.53
62895;BME280;49204;44.916;37.998;2022-07-29T08:35:52;101138.86;;;37.25;34.57
62895;BME280;49204;44.916;37.998;2022-07-29T08:38:21;101135.44;;;37.21;34.62
62895;BME280;49204;44.916;37.998;2022-07-29T08:40:50;101139.71;;;37.17;34.36
62895;BME280;49204;44.916;37.998;2022-07-29T08:43:19;101136.81;;;37.30;34.83
62895;BME280;49204;44.916;37.998;2022-07-29T08:45:49;101135.83;;;37.43;34.58
62895;BME280;49204;44.916;37.998;2022-07-29T08:48:21;101141.32;;;37.52;34.36
62895;BME280;49204;44.916;37.998;2022-07-29T08:50:59;101136.09;;;37.90;34.25
62895;BME280;49204;44.916;37.998;2022-07-29T08:53:25;101134.25;;;38.12;34.05
62895;BME280;49204;44.916;37.998;2022-07-29T08:55:55;101134.05;;;38.25;33.76
62895;BME280;49204;44.916;37.998;2022-07-29T08:58:24;101138.41;;;38.45;33.71
62895;BME280;49204;44.916;37.998;2022-07-29T09:00:54;101131.34;;;38.37;33.38
62895;BME280;49204;44.916;37.998;2022-07-29T09:03:26;101128.00;;;38.35;33.34
62895;BME280;49204;44.916;37.998;2022-07-29T09:05:55;101121.77;;;38.39;32.94
62895;BME280;49204;44.916;37.998;2022-07-29T09:08:24;101124.47;;;38.37;33.11
62895;BME280;49204;44.916;37.998;2022-07-29T09:10:54;101131.48;;;38.63;33.42
62895;BME280;49204;44.916;37.998;2022-07-29T09:13:27;101132.13;;;38.68;33.31
62895;BME280;49204;44.916;37.998;2022-07-29T09:15:55;101133.84;;;38.08;33.41
62895;BME280;49204;44.916;37.998;2022-07-29T09:18:36;101130.16;;;37.84;33.83
62895;BME280;49204;44.916;37.998;2022-07-29T09:21:07;101130.02;;;37.79;32.97
62895;BME280;49204;44.916;37.998;2022-07-29T09:24:10;101127.80;;;37.60;33.19
62895;BME280;49204;44.916;37.998;2022-07-29T09:26:42;101130.94;;;37.82;33.55
62895;BME280;49204;44.916;37.998;2022-07-29T09:29:14;101128.02;;;37.86;33.27
62895;BME280;49204;44.916;37.998;2022-07-29T09:31:45;101125.27;;;37.86;32.64
62895;BME280;49204;44.916;37.998;2022-07-29T09:34:16;101117.89;;;37.68;33.03
62895;BME280;49204;44.916;37.998;2022-07-29T09:36:47;101118.42;;;37.77;33.73
62895;BME280;49204;44.916;37.998;2022-07-29T09:39:30;101112.87;;;37.46;33.47
62895;BME280;49204;44.916;37.998;2022-07-29T09:42:02;101111.87;;;37.78;33.66
62895;BME280;49204;44.916;37.998;2022-07-29T09:44:42;101110.80;;;38.18;33.57
62895;BME280;49204;44.916;37.998;2022-07-29T09:47:11;101112.71;;;37.99;33.68
62895;BME280;49204;44.916;37.998;2022-07-29T09:49:56;101111.95;;;37.00;34.12
62895;BME280;49204;44.916;37.998;2022-07-29T09:52:27;101108.89;;;36.23;35.13
62895;BME280;49204;44.916;37.998;2022-07-29T09:55:09;101107.31;;;35.80;35.61
62895;BME280;49204;44.916;37.998;2022-07-29T09:57:38;101104.16;;;36.21;35.47
62895;BME280;49204;44.916;37.998;2022-07-29T10:00:15;101108.20;;;36.60;34.88
62895;BME280;49204;44.916;37.998;2022-07-29T10:02:46;101102.10;;;36.10;35.15
62895;BME280;49204;44.916;37.998;2022-07-29T10:05:23;101102.17;;;35.74;35.50
62895;BME280;49204;44.916;37.998;2022-07-29T10:07:56;101099.28;;;35.85;35.62
62895;BME280;49204;44.916;37.998;2022-07-29T10:10:34;101093.09;;;36.19;35.57
62895;BME280;49204;44.916;37.998;2022-07-29T10:13:12;101102.51;;;36.45;35.18
62895;BME280;49204;44.916;37.998;2022-07-29T10:15:43;101091.79;;;36.53;35.08
62895;BME280;49204;44.916;37.998;2022-07-29T10:18:13;101087.13;;;36.95;35.02
62895;BME280;49204;44.916;37.998;2022-07-29T10:20:43;101088.45;;;36.67;34.33
62895;BME280;49204;44.916;37.998;2022-07-29T10:23:12;101088.21;;;36.05;34.41
62895;BME280;49204;44.916;37.998;2022-07-29T10:25:41;101083.70;;;36.01;35.09
62895;BME280;49204;44.916;37.998;2022-07-29T10:28:10;101084.70;;;35.75;35.79
62895;BME280;49204;44.916;37.998;2022-07-29T10:30:39;101084.30;;;35.87;36.21
62895;BME280;49204;44.916;37.998;2022-07-29T10:39:17;101088.92;;;35.93;33.89
62895;BME280;49204;44.916;37.998;2022-07-29T10:44:28;101094.14;;;36.18;34.47
62895;BME280;49204;44.916;37.998;2022-07-29T10:46:57;101096.91;;;36.43;34.40
62895;BME280;49204;44.916;37.998;2022-07-29T10:49:27;101094.03;;;36.22;33.53
62895;BME280;49204;44.916;37.998;2022-07-29T10:52:10;101099.62;;;36.18;33.62
62895;BME280;49204;44.916;37.998;2022-07-29T10:54:43;101081.90;;;36.04;33.67
62895;BME280;49204;44.916;37.998;2022-07-29T10:57:26;101081.90;;;36.04;33.67
62895;BME280;49204;44.916;37.998;2022-07-29T11:02:42;101079.90;;;35.57;33.85
62895;BME280;49204;44.916;37.998;2022-07-29T11:05:20;101080.73;;;35.28;34.69
62895;BME280;49204;44.916;37.998;2022-07-29T11:10:44;101078.73;;;35.26;35.46
62895;BME280;49204;44.916;37.998;2022-07-29T11:13:14;101074.98;;;35.14;35.59
62895;BME280;49204;44.916;37.998;2022-07-29T11:15:54;101080.66;;;35.19;35.71
62895;BME280;49204;44.916;37.998;2022-07-29T11:18:23;101077.17;;;35.21;35.76
62895;BME280;49204;44.916;37.998;2022-07-29T11:20:52;101074.34;;;35.18;35.58
62895;BME280;49204;44.916;37.998;2022-07-29T11:23:32;101080.45;;;35.00;35.74
62895;BME280;49204;44.916;37.998;2022-07-29T11:26:16;101073.55;;;34.78;35.56
62895;BME280;49204;44.916;37.998;2022-07-29T11:29:14;101071.64;;;34.65;35.58
62895;BME280;49204;44.916;37.998;2022-07-29T11:31:38;101072.70;;;34.44;35.63
62895;BME280;49204;44.916;37.998;2022-07-29T11:45:02;101052.50;;;34.18;36.47
62895;BME280;49204;44.916;37.998;2022-07-29T11:47:37;101049.98;;;34.30;36.39
62895;BME280;49204;44.916;37.998;2022-07-29T11:50:12;101050.10;;;34.33;36.35
62895;BME280;49204;44.916;37.998;2022-07-29T11:52:47;101051.77;;;34.34;36.71
62895;BME280;49204;44.916;37.998;2022-07-29T11:55:17;101041.72;;;34.10;37.11
62895;BME280;49204;44.916;37.998;2022-07-29T11:57:50;101052.87;;;34.02;36.83
62895;BME280;49204;44.916;37.998;2022-07-29T12:00:29;101051.34;;;33.86;36.83
62895;BME280;49204;44.916;37.998;2022-07-29T12:03:01;101049.42;;;33.73;36.75
62895;BME280;49204;44.916;37.998;2022-07-29T12:05:39;101045.76;;;33.70;36.67
62895;BME280;49204;44.916;37.998;2022-07-29T12:08:10;101025.71;;;33.74;37.08
62895;BME280;49204;44.916;37.998;2022-07-29T12:10:40;101037.83;;;33.89;36.78
62895;BME280;49204;44.916;37.998;2022-07-29T12:13:10;101021.08;;;33.74;37.14
62895;BME280;49204;44.916;37.998;2022-07-29T12:15:39;101021.08;;;33.74;37.14
62895;BME280;49204;44.916;37.998;2022-07-29T12:18:15;101020.15;;;33.78;37.09
62895;BME280;49204;44.916;37.998;2022-07-29T12:20:45;101016.13;;;33.67;37.39
62895;BME280;49204;44.916;37.998;2022-07-29T12:23:15;101021.48;;;33.71;38.24
62895;BME280;49204;44.916;37.998;2022-07-29T12:25:44;101022.45;;;33.74;38.73
62895;BME280;49204;44.916;37.998;2022-07-29T12:28:14;101022.45;;;33.74;38.73
62895;BME280;49204;44.916;37.998;2022-07-29T12:30:49;101027.81;;;33.78;37.64
62895;BME280;49204;44.916;37.998;2022-07-29T12:33:21;101017.86;;;33.64;36.99
62895;BME280;49204;44.916;37.998;2022-07-29T12:35:57;101014.90;;;33.52;36.89
62895;BME280;49204;44.916;37.998;2022-07-29T12:38:21;101013.63;;;33.55;37.12
62895;BME280;49204;44.916;37.998;2022-07-29T12:40:52;101002.22;;;33.55;37.34
62895;BME280;49204;44.916;37.998;2022-07-29T12:43:22;101014.06;;;33.52;36.85
62895;BME280;49204;44.916;37.998;2022-07-29T12:45:54;101008.38;;;33.53;36.79
62895;BME280;49204;44.916;37.998;2022-07-29T12:48:36;100998.32;;;33.54;36.74
62895;BME280;49204;44.916;37.998;2022-07-29T12:51:06;101001.78;;;33.58;36.99
62895;BME280;49204;44.916;37.998;2022-07-29T12:53:36;101000.75;;;33.59;37.13
62895;BME280;49204;44.916;37.998;2022-07-29T12:56:06;101003.78;;;33.54;36.87
62895;BME280;49204;44.916;37.998;2022-07-29T12:58:41;100991.30;;;33.55;37.08
62895;BME280;49204;44.916;37.998;2022-07-29T13:01:12;100991.30;;;33.55;37.08
62895;BME280;49204;44.916;37.998;2022-07-29T13:03:47;100988.66;;;33.58;37.38
62895;BME280;49204;44.916;37.998;2022-07-29T13:06:36;100991.06;;;33.50;36.75
62895;BME280;49204;44.916;37.998;2022-07-29T13:09:14;100984.34;;;33.46;36.65
62895;BME280;49204;44.916;37.998;2022-07-29T13:11:50;100986.00;;;33.40;36.69
62895;BME280;49204;44.916;37.998;2022-07-29T13:14:38;100978.51;;;33.32;36.71
62895;BME280;49204;44.916;37.998;2022-07-29T13:19:40;100979.73;;;33.22;36.39
62895;BME280;49204;44.916;37.998;2022-07-29T13:22:17;100979.50;;;33.17;36.12
62895;BME280;49204;44.916;37.998;2022-07-29T13:24:57;100976.39;;;33.09;35.97
62895;BME280;49204;44.916;37.998;2022-07-29T13:27:28;100977.52;;;33.04;35.86
62895;BME280;49204;44.916;37.998;2022-07-29T13:29:58;100971.42;;;33.02;35.69
62895;BME280;49204;44.916;37.998;2022-07-29T13:32:29;100971.53;;;33.05;35.88
62895;BME280;49204;44.916;37.998;2022-07-29T13:35:00;100970.98;;;32.99;36.56
62895;BME280;49204;44.916;37.998;2022-07-29T13:37:30;100963.00;;;32.97;36.35
62895;BME280;49204;44.916;37.998;2022-07-29T13:40:00;100963.00;;;32.97;36.35